sensor_id;sensor_type;location;lat;lon;timestamp;pressure;altitude;pressure_sealevel;temperature;humidity
45350;BME280;31086;51.702;-1.106;2022-08-19T00:00:38;100554.65;;;19.62;75.42
45350;BME280;31086;51.702;-1.106;2022-08-19T00:03:06;100556.59;;;19.90;73.62
45350;BME280;31086;51.702;-1.106;2022-08-19T00:05:34;100554.09;;;20.25;72.73
45350;BME280;31086;51.702;-1.106;2022-08-19T00:08:02;100552.81;;;20.06;74.33
45350;BME280;31086;51.702;-1.106;2022-08-19T00:10:30;100556.25;;;18.73;77.01
45350;BME280;31086;51.702;-1.106;2022-08-19T00:12:57;100551.90;;;19.41;75.59
45350;BME280;31086;51.702;-1.106;2022-08-19T00:15:24;100548.70;;;19.41;76.14
45350;BME280;31086;51.702;-1.106;2022-08-19T00:17:51;100548.41;;;19.09;77.37
45350;BME280;31086;51.702;-1.106;2022-08-19T00:20:21;100541.42;;;18.65;79.13
45350;BME280;31086;51.702;-1.106;2022-08-19T00:22:48;100544.08;;;20.07;75.61
45350;BME280;31086;51.702;-1.106;2022-08-19T00:25:16;100550.38;;;19.16;77.52
45350;BME280;31086;51.702;-1.106;2022-08-19T00:27:43;100552.12;;;19.47;76.99
45350;BME280;31086;51.702;-1.106;2022-08-19T00:30:11;100552.77;;;20.08;74.33
45350;BME280;31086;51.702;-1.106;2022-08-19T00:32:38;100550.71;;;20.86;72.42
45350;BME280;31086;51.702;-1.106;2022-08-19T00:35:07;100551.85;;;21.03;71.65
45350;BME280;31086;51.702;-1.106;2022-08-19T00:37:34;100555.47;;;21.46;70.49
45350;BME280;31086;51.702;-1.106;2022-08-19T00:40:05;100552.38;;;21.48;69.70
45350;BME280;31086;51.702;-1.106;2022-08-19T00:42:33;100545.22;;;20.73;71.09
45350;BME280;31086;51.702;-1.106;2022-08-19T00:45:00;100549.15;;;20.19;72.20
45350;BME280;31086;51.702;-1.106;2022-08-19T00:47:27;100541.74;;;20.86;71.59
45350;BME280;31086;51.702;-1.106;2022-08-19T00:49:57;100544.34;;;20.33;72.47
45350;BME280;31086;51.702;-1.106;2022-08-19T00:52:29;100540.92;;;20.63;72.06
45350;BME280;31086;51.702;-1.106;2022-08-19T00:54:59;100545.82;;;20.03;72.63
45350;BME280;31086;51.702;-1.106;2022-08-19T00:57:36;100534.84;;;19.85;73.65
45350;BME280;31086;51.702;-1.106;2022-08-19T01:00:09;100536.67;;;19.47;74.72
45350;BME280;31086;51.702;-1.106;2022-08-19T01:02:38;100536.21;;;19.29;76.00
45350;BME280;31086;51.702;-1.106;2022-08-19T01:05:10;100532.58;;;19.42;74.45
45350;BME280;31086;51.702;-1.106;2022-08-19T01:07:39;100531.14;;;19.53;74.78
45350;BME280;31086;51.702;-1.106;2022-08-19T01:10:10;100530.89;;;19.92;72.82
45350;BME280;31086;51.702;-1.106;2022-08-19T01:12:37;100531.86;;;19.89;73.51
45350;BME280;31086;51.702;-1.106;2022-08-19T01:15:08;100532.03;;;19.72;74.51
45350;BME280;31086;51.702;-1.106;2022-08-19T01:17:38;100536.84;;;18.86;77.17
45350;BME280;31086;51.702;-1.106;2022-08-19T01:20:10;100530.03;;;18.94;76.40
45350;BME280;31086;51.702;-1.106;2022-08-19T01:22:42;100524.93;;;19.10;75.79
45350;BME280;31086;51.702;-1.106;2022-08-19T01:25:10;100527.38;;;19.41;75.36
45350;BME280;31086;51.702;-1.106;2022-08-19T01:27:38;100521.09;;;19.53;74.63
45350;BME280;31086;51.702;-1.106;2022-08-19T01:30:09;100522.93;;;20.00;73.61
45350;BME280;31086;51.702;-1.106;2022-08-19T01:32:36;100525.09;;;20.44;72.53
45350;BME280;31086;51.702;-1.106;2022-08-19T01:35:05;100521.21;;;20.49;71.65
45350;BME280;31086;51.702;-1.106;2022-08-19T01:37:42;100530.41;;;20.21;72.95
45350;BME280;31086;51.702;-1.106;2022-08-19T01:40:11;100528.90;;;19.36;74.63
45350;BME280;31086;51.702;-1.106;2022-08-19T01:42:38;100523.99;;;19.85;73.91
45350;BME280;31086;51.702;-1.106;2022-08-19T01:45:06;100526.05;;;19.82;74.08
45350;BME280;31086;51.702;-1.106;2022-08-19T01:47:34;100526.79;;;19.78;73.77
45350;BME280;31086;51.702;-1.106;2022-08-19T01:50:05;100526.93;;;20.30;72.53
45350;BME280;31086;51.702;-1.106;2022-08-19T01:52:34;100526.82;;;20.50;71.82
45350;BME280;31086;51.702;-1.106;2022-08-19T01:55:02;100522.99;;;20.78;71.44
45350;BME280;31086;51.702;-1.106;2022-08-19T01:57:29;100532.67;;;20.29;72.56
45350;BME280;31086;51.702;-1.106;2022-08-19T01:59:56;100524.75;;;20.82;71.24
45350;BME280;31086;51.702;-1.106;2022-08-19T02:02:23;100527.92;;;20.59;70.61
45350;BME280;31086;51.702;-1.106;2022-08-19T02:04:51;100521.90;;;21.03;70.13
45350;BME280;31086;51.702;-1.106;2022-08-19T02:07:19;100518.56;;;20.95;70.82
45350;BME280;31086;51.702;-1.106;2022-08-19T02:09:46;100518.22;;;20.96;70.85
45350;BME280;31086;51.702;-1.106;2022-08-19T02:12:14;100523.02;;;20.45;71.53
45350;BME280;31086;51.702;-1.106;2022-08-19T02:14:42;100529.59;;;19.77;74.34
45350;BME280;31086;51.702;-1.106;2022-08-19T02:17:10;100539.58;;;19.64;74.19
45350;BME280;31086;51.702;-1.106;2022-08-19T02:19:37;100538.29;;;19.56;76.13
45350;BME280;31086;51.702;-1.106;2022-08-19T02:22:05;100540.61;;;19.92;74.99
45350;BME280;31086;51.702;-1.106;2022-08-19T02:24:32;100538.71;;;19.93;74.91
45350;BME280;31086;51.702;-1.106;2022-08-19T02:26:59;100537.85;;;19.90;75.25
45350;BME280;31086;51.702;-1.106;2022-08-19T02:29:27;100538.76;;;19.19;76.87
45350;BME280;31086;51.702;-1.106;2022-08-19T02:31:54;100544.48;;;19.67;76.24
45350;BME280;31086;51.702;-1.106;2022-08-19T02:34:21;100546.05;;;19.91;75.53
45350;BME280;31086;51.702;-1.106;2022-08-19T02:36:48;100548.34;;;20.00;75.18
45350;BME280;31086;51.702;-1.106;2022-08-19T02:39:15;100544.22;;;19.97;74.82
45350;BME280;31086;51.702;-1.106;2022-08-19T02:41:42;100545.84;;;20.29;74.12
45350;BME280;31086;51.702;-1.106;2022-08-19T02:44:09;100547.56;;;19.86;74.24
45350;BME280;31086;51.702;-1.106;2022-08-19T02:46:36;100548.09;;;20.09;74.69
45350;BME280;31086;51.702;-1.106;2022-08-19T02:49:06;100545.88;;;20.19;74.63
45350;BME280;31086;51.702;-1.106;2022-08-19T02:51:35;100551.92;;;20.06;74.67
45350;BME280;31086;51.702;-1.106;2022-08-19T02:54:03;100548.95;;;20.18;74.06
45350;BME280;31086;51.702;-1.106;2022-08-19T02:56:31;100548.10;;;20.14;73.79
45350;BME280;31086;51.702;-1.106;2022-08-19T02:59:01;100546.80;;;19.51;74.48
45350;BME280;31086;51.702;-1.106;2022-08-19T03:01:31;100546.26;;;20.37;73.07
45350;BME280;31086;51.702;-1.106;2022-08-19T03:04:02;100545.37;;;20.04;73.50
45350;BME280;31086;51.702;-1.106;2022-08-19T03:06:31;100554.98;;;19.84;73.44
45350;BME280;31086;51.702;-1.106;2022-08-19T03:08:59;100557.19;;;20.02;73.56
45350;BME280;31086;51.702;-1.106;2022-08-19T03:11:29;100554.14;;;19.78;74.01
45350;BME280;31086;51.702;-1.106;2022-08-19T03:13:58;100552.47;;;19.70;74.76
45350;BME280;31086;51.702;-1.106;2022-08-19T03:16:33;100549.97;;;19.43;74.20
45350;BME280;31086;51.702;-1.106;2022-08-19T03:19:02;100545.08;;;19.64;74.26
45350;BME280;31086;51.702;-1.106;2022-08-19T03:21:32;100543.38;;;19.66;73.41
45350;BME280;31086;51.702;-1.106;2022-08-19T03:24:02;100541.62;;;19.93;72.47
45350;BME280;31086;51.702;-1.106;2022-08-19T03:26:29;100542.54;;;19.92;72.61
45350;BME280;31086;51.702;-1.106;2022-08-19T03:28:57;100547.82;;;19.44;73.08
45350;BME280;31086;51.702;-1.106;2022-08-19T03:31:25;100548.89;;;20.15;71.63
45350;BME280;31086;51.702;-1.106;2022-08-19T03:33:53;100549.86;;;20.26;72.01
45350;BME280;31086;51.702;-1.106;2022-08-19T03:36:21;100554.60;;;19.63;72.67
45350;BME280;31086;51.702;-1.106;2022-08-19T03:38:50;100556.36;;;20.05;70.89
45350;BME280;31086;51.702;-1.106;2022-08-19T03:41:24;100560.38;;;19.88;71.19
45350;BME280;31086;51.702;-1.106;2022-08-19T03:43:53;100568.25;;;19.96;72.02
45350;BME280;31086;51.702;-1.106;2022-08-19T03:46:22;100570.64;;;19.68;71.45
45350;BME280;31086;51.702;-1.106;2022-08-19T03:48:52;100572.88;;;20.12;70.93
45350;BME280;31086;51.702;-1.106;2022-08-19T03:51:22;100570.79;;;20.07;71.01
45350;BME280;31086;51.702;-1.106;2022-08-19T03:53:49;100567.52;;;20.28;71.21
45350;BME280;31086;51.702;-1.106;2022-08-19T03:56:17;100568.96;;;19.58;71.56
45350;BME280;31086;51.702;-1.106;2022-08-19T03:58:44;100569.29;;;20.64;70.23
45350;BME280;31086;51.702;-1.106;2022-08-19T04:01:14;100570.64;;;20.40;69.58
45350;BME280;31086;51.702;-1.106;2022-08-19T04:03:42;100570.16;;;20.37;69.80
45350;BME280;31086;51.702;-1.106;2022-08-19T04:06:12;100573.75;;;20.39;69.98
45350;BME280;31086;51.702;-1.106;2022-08-19T04:08:40;100574.36;;;20.30;70.37
45350;BME280;31086;51.702;-1.106;2022-08-19T04:11:08;100581.94;;;19.47;70.77
45350;BME280;31086;51.702;-1.106;2022-08-19T04:13:35;100574.94;;;19.91;70.59
45350;BME280;31086;51.702;-1.106;2022-08-19T04:16:02;100570.51;;;20.18;70.97
45350;BME280;31086;51.702;-1.106;2022-08-19T04:18:30;100577.27;;;19.87;70.66
45350;BME280;31086;51.702;-1.106;2022-08-19T04:20:57;100581.92;;;18.98;72.55
45350;BME280;31086;51.702;-1.106;2022-08-19T04:23:24;100572.61;;;19.61;71.47
45350;BME280;31086;51.702;-1.106;2022-08-19T04:25:52;100577.66;;;19.23;72.32
45350;BME280;31086;51.702;-1.106;2022-08-19T04:28:20;100584.70;;;19.60;71.24
45350;BME280;31086;51.702;-1.106;2022-08-19T04:30:49;100594.37;;;19.93;70.22
45350;BME280;31086;51.702;-1.106;2022-08-19T04:33:20;100596.71;;;19.47;70.60
45350;BME280;31086;51.702;-1.106;2022-08-19T04:35:49;100595.36;;;20.07;69.77
45350;BME280;31086;51.702;-1.106;2022-08-19T04:38:20;100594.55;;;19.45;69.76
45350;BME280;31086;51.702;-1.106;2022-08-19T04:40:49;100597.23;;;20.07;69.90
45350;BME280;31086;51.702;-1.106;2022-08-19T04:43:17;100603.48;;;19.59;69.73
45350;BME280;31086;51.702;-1.106;2022-08-19T04:45:46;100602.74;;;19.84;69.14
45350;BME280;31086;51.702;-1.106;2022-08-19T04:48:14;100606.70;;;19.74;69.05
45350;BME280;31086;51.702;-1.106;2022-08-19T04:50:43;100602.96;;;19.71;68.83
45350;BME280;31086;51.702;-1.106;2022-08-19T04:53:10;100602.12;;;19.49;68.96
45350;BME280;31086;51.702;-1.106;2022-08-19T04:55:40;100605.07;;;19.44;69.01
45350;BME280;31086;51.702;-1.106;2022-08-19T04:58:07;100607.66;;;19.57;68.40
45350;BME280;31086;51.702;-1.106;2022-08-19T05:00:37;100615.15;;;19.29;68.95
45350;BME280;31086;51.702;-1.106;2022-08-19T05:03:06;100618.97;;;19.54;68.69
45350;BME280;31086;51.702;-1.106;2022-08-19T05:05:33;100626.61;;;19.41;68.94
45350;BME280;31086;51.702;-1.106;2022-08-19T05:08:04;100626.64;;;18.65;69.15
45350;BME280;31086;51.702;-1.106;2022-08-19T05:10:35;100628.29;;;19.14;69.34
45350;BME280;31086;51.702;-1.106;2022-08-19T05:13:03;100623.41;;;19.04;69.50
45350;BME280;31086;51.702;-1.106;2022-08-19T05:15:31;100623.94;;;19.39;68.81
45350;BME280;31086;51.702;-1.106;2022-08-19T05:17:58;100621.43;;;19.03;68.86
45350;BME280;31086;51.702;-1.106;2022-08-19T05:20:26;100621.48;;;19.08;68.85
45350;BME280;31086;51.702;-1.106;2022-08-19T05:22:53;100619.80;;;19.31;68.35
45350;BME280;31086;51.702;-1.106;2022-08-19T05:25:20;100628.83;;;18.91;68.37
45350;BME280;31086;51.702;-1.106;2022-08-19T05:27:48;100626.25;;;18.45;69.66
45350;BME280;31086;51.702;-1.106;2022-08-19T05:30:17;100628.31;;;19.09;69.29
45350;BME280;31086;51.702;-1.106;2022-08-19T05:32:44;100627.23;;;18.92;69.59
45350;BME280;31086;51.702;-1.106;2022-08-19T05:35:11;100627.62;;;18.77;68.40
45350;BME280;31086;51.702;-1.106;2022-08-19T05:37:38;100629.57;;;18.63;69.99
45350;BME280;31086;51.702;-1.106;2022-08-19T05:40:07;100635.63;;;19.04;69.52
45350;BME280;31086;51.702;-1.106;2022-08-19T05:42:34;100637.94;;;18.53;69.93
45350;BME280;31086;51.702;-1.106;2022-08-19T05:45:02;100636.45;;;18.47;70.11
45350;BME280;31086;51.702;-1.106;2022-08-19T05:47:29;100637.95;;;18.54;69.25
45350;BME280;31086;51.702;-1.106;2022-08-19T05:49:56;100643.41;;;18.68;69.12
45350;BME280;31086;51.702;-1.106;2022-08-19T05:52:24;100644.74;;;18.11;69.25
45350;BME280;31086;51.702;-1.106;2022-08-19T05:54:51;100650.08;;;18.39;69.42
45350;BME280;31086;51.702;-1.106;2022-08-19T05:57:19;100650.14;;;18.54;69.30
45350;BME280;31086;51.702;-1.106;2022-08-19T05:59:46;100653.11;;;18.64;69.40
45350;BME280;31086;51.702;-1.106;2022-08-19T06:02:13;100658.67;;;18.49;68.84
45350;BME280;31086;51.702;-1.106;2022-08-19T06:04:41;100661.39;;;18.50;68.54
45350;BME280;31086;51.702;-1.106;2022-08-19T06:07:08;100668.02;;;18.49;68.17
45350;BME280;31086;51.702;-1.106;2022-08-19T06:09:36;100662.46;;;18.79;68.58
45350;BME280;31086;51.702;-1.106;2022-08-19T06:12:03;100661.85;;;17.94;70.33
45350;BME280;31086;51.702;-1.106;2022-08-19T06:14:33;100656.57;;;18.42;69.01
45350;BME280;31086;51.702;-1.106;2022-08-19T06:17:01;100657.62;;;18.62;68.51
45350;BME280;31086;51.702;-1.106;2022-08-19T06:19:30;100659.73;;;18.62;67.57
45350;BME280;31086;51.702;-1.106;2022-08-19T06:21:58;100662.75;;;18.97;68.31
45350;BME280;31086;51.702;-1.106;2022-08-19T06:24:28;100665.05;;;18.40;69.79
45350;BME280;31086;51.702;-1.106;2022-08-19T06:26:56;100667.53;;;18.75;68.37
45350;BME280;31086;51.702;-1.106;2022-08-19T06:29:25;100671.19;;;18.46;68.76
45350;BME280;31086;51.702;-1.106;2022-08-19T06:31:55;100676.44;;;18.12;69.99
45350;BME280;31086;51.702;-1.106;2022-08-19T06:34:24;100676.05;;;18.49;68.54
45350;BME280;31086;51.702;-1.106;2022-08-19T06:36:52;100682.03;;;17.96;70.19
45350;BME280;31086;51.702;-1.106;2022-08-19T06:39:23;100682.22;;;18.17;69.19
45350;BME280;31086;51.702;-1.106;2022-08-19T06:41:52;100686.60;;;18.90;68.07
45350;BME280;31086;51.702;-1.106;2022-08-19T06:44:21;100688.03;;;18.07;68.68
45350;BME280;31086;51.702;-1.106;2022-08-19T06:46:49;100695.89;;;17.83;69.82
45350;BME280;31086;51.702;-1.106;2022-08-19T06:49:17;100695.88;;;18.06;69.64
45350;BME280;31086;51.702;-1.106;2022-08-19T06:51:46;100697.66;;;17.86;69.09
45350;BME280;31086;51.702;-1.106;2022-08-19T06:54:15;100689.31;;;18.03;68.17
45350;BME280;31086;51.702;-1.106;2022-08-19T06:56:42;100691.57;;;17.24;70.84
45350;BME280;31086;51.702;-1.106;2022-08-19T06:59:11;100693.97;;;17.42;69.50
45350;BME280;31086;51.702;-1.106;2022-08-19T07:01:42;100700.54;;;17.38;69.33
45350;BME280;31086;51.702;-1.106;2022-08-19T07:04:09;100697.34;;;17.50;69.95
45350;BME280;31086;51.702;-1.106;2022-08-19T07:06:37;100695.60;;;17.80;68.40
45350;BME280;31086;51.702;-1.106;2022-08-19T07:09:05;100707.32;;;18.24;68.61
45350;BME280;31086;51.702;-1.106;2022-08-19T07:11:33;100709.59;;;17.78;69.50
45350;BME280;31086;51.702;-1.106;2022-08-19T07:14:00;100706.23;;;18.51;67.42
45350;BME280;31086;51.702;-1.106;2022-08-19T07:16:29;100708.15;;;18.61;66.46
45350;BME280;31086;51.702;-1.106;2022-08-19T07:18:56;100708.25;;;17.54;69.46
45350;BME280;31086;51.702;-1.106;2022-08-19T07:21:25;100712.54;;;17.32;70.06
45350;BME280;31086;51.702;-1.106;2022-08-19T07:23:53;100720.02;;;16.86;71.25
45350;BME280;31086;51.702;-1.106;2022-08-19T07:26:25;100719.40;;;17.53;69.16
45350;BME280;31086;51.702;-1.106;2022-08-19T07:28:53;100714.43;;;18.30;68.53
45350;BME280;31086;51.702;-1.106;2022-08-19T07:31:22;100719.81;;;18.54;67.14
45350;BME280;31086;51.702;-1.106;2022-08-19T07:33:52;100721.87;;;18.53;67.86
45350;BME280;31086;51.702;-1.106;2022-08-19T07:36:22;100721.85;;;17.56;69.98
45350;BME280;31086;51.702;-1.106;2022-08-19T07:38:51;100726.56;;;18.03;67.99
45350;BME280;31086;51.702;-1.106;2022-08-19T07:41:20;100725.68;;;17.85;68.30
45350;BME280;31086;51.702;-1.106;2022-08-19T07:43:49;100722.80;;;18.45;66.45
45350;BME280;31086;51.702;-1.106;2022-08-19T07:46:17;100722.43;;;18.49;66.60
45350;BME280;31086;51.702;-1.106;2022-08-19T07:48:45;100722.27;;;18.10;67.76
45350;BME280;31086;51.702;-1.106;2022-08-19T07:51:14;100730.90;;;17.23;69.60
45350;BME280;31086;51.702;-1.106;2022-08-19T07:53:41;100732.13;;;18.32;67.70
45350;BME280;31086;51.702;-1.106;2022-08-19T07:56:08;100732.98;;;17.72;67.71
45350;BME280;31086;51.702;-1.106;2022-08-19T07:58:38;100734.08;;;18.20;68.07
45350;BME280;31086;51.702;-1.106;2022-08-19T08:01:09;100732.01;;;18.79;67.33
45350;BME280;31086;51.702;-1.106;2022-08-19T08:03:37;100733.31;;;19.18;65.10
45350;BME280;31086;51.702;-1.106;2022-08-19T08:06:05;100728.80;;;18.68;66.26
45350;BME280;31086;51.702;-1.106;2022-08-19T08:08:34;100731.02;;;18.86;64.98
45350;BME280;31086;51.702;-1.106;2022-08-19T08:11:02;100731.39;;;18.18;65.60
45350;BME280;31086;51.702;-1.106;2022-08-19T08:13:29;100724.84;;;18.28;65.08
45350;BME280;31086;51.702;-1.106;2022-08-19T08:15:57;100728.31;;;18.38;64.77
45350;BME280;31086;51.702;-1.106;2022-08-19T08:18:24;100742.07;;;18.42;65.13
45350;BME280;31086;51.702;-1.106;2022-08-19T08:20:52;100736.26;;;19.02;63.63
45350;BME280;31086;51.702;-1.106;2022-08-19T08:23:19;100741.76;;;18.37;63.20
45350;BME280;31086;51.702;-1.106;2022-08-19T08:25:46;100748.04;;;18.74;63.02
45350;BME280;31086;51.702;-1.106;2022-08-19T08:28:14;100753.19;;;18.30;63.59
45350;BME280;31086;51.702;-1.106;2022-08-19T08:30:41;100751.61;;;18.45;63.73
45350;BME280;31086;51.702;-1.106;2022-08-19T08:33:10;100756.41;;;18.41;61.22
45350;BME280;31086;51.702;-1.106;2022-08-19T08:35:38;100756.41;;;17.88;62.20
45350;BME280;31086;51.702;-1.106;2022-08-19T08:38:06;100760.46;;;18.18;61.77
45350;BME280;31086;51.702;-1.106;2022-08-19T08:40:42;100753.28;;;18.63;62.05
45350;BME280;31086;51.702;-1.106;2022-08-19T08:43:23;100754.88;;;18.14;61.75
45350;BME280;31086;51.702;-1.106;2022-08-19T08:45:56;100756.39;;;18.36;61.11
45350;BME280;31086;51.702;-1.106;2022-08-19T08:48:35;100753.73;;;18.25;59.96
45350;BME280;31086;51.702;-1.106;2022-08-19T08:51:07;100753.77;;;18.61;59.74
45350;BME280;31086;51.702;-1.106;2022-08-19T08:53:36;100760.25;;;18.01;60.08
45350;BME280;31086;51.702;-1.106;2022-08-19T08:56:07;100766.88;;;18.69;60.52
45350;BME280;31086;51.702;-1.106;2022-08-19T08:58:44;100774.46;;;17.96;60.45
45350;BME280;31086;51.702;-1.106;2022-08-19T09:01:13;100768.85;;;18.34;59.15
45350;BME280;31086;51.702;-1.106;2022-08-19T09:03:43;100770.33;;;18.47;57.77
45350;BME280;31086;51.702;-1.106;2022-08-19T09:06:29;100763.00;;;18.24;55.71
45350;BME280;31086;51.702;-1.106;2022-08-19T09:09:03;100765.73;;;19.05;55.53
45350;BME280;31086;51.702;-1.106;2022-08-19T09:11:42;100766.14;;;18.82;55.08
45350;BME280;31086;51.702;-1.106;2022-08-19T09:14:23;100767.41;;;18.37;54.01
45350;BME280;31086;51.702;-1.106;2022-08-19T09:16:57;100770.35;;;18.41;53.96
45350;BME280;31086;51.702;-1.106;2022-08-19T09:19:25;100777.69;;;18.16;55.40
45350;BME280;31086;51.702;-1.106;2022-08-19T09:21:52;100776.29;;;18.16;53.53
45350;BME280;31086;51.702;-1.106;2022-08-19T09:24:19;100777.71;;;17.72;54.06
45350;BME280;31086;51.702;-1.106;2022-08-19T09:26:47;100782.03;;;18.08;52.88
45350;BME280;31086;51.702;-1.106;2022-08-19T09:29:14;100784.82;;;17.94;53.48
45350;BME280;31086;51.702;-1.106;2022-08-19T09:31:42;100793.59;;;18.65;53.03
45350;BME280;31086;51.702;-1.106;2022-08-19T09:34:09;100784.52;;;18.24;53.60
45350;BME280;31086;51.702;-1.106;2022-08-19T09:36:36;100785.19;;;19.09;52.21
45350;BME280;31086;51.702;-1.106;2022-08-19T09:39:04;100778.91;;;19.20;51.65
45350;BME280;31086;51.702;-1.106;2022-08-19T09:41:32;100782.46;;;18.77;52.00
45350;BME280;31086;51.702;-1.106;2022-08-19T09:44:00;100785.95;;;18.18;52.40
45350;BME280;31086;51.702;-1.106;2022-08-19T09:46:28;100788.66;;;18.76;50.46
45350;BME280;31086;51.702;-1.106;2022-08-19T09:48:59;100790.22;;;18.70;51.40
45350;BME280;31086;51.702;-1.106;2022-08-19T09:51:27;100792.28;;;18.52;51.18
45350;BME280;31086;51.702;-1.106;2022-08-19T09:53:59;100785.41;;;18.61;50.75
45350;BME280;31086;51.702;-1.106;2022-08-19T09:56:26;100778.17;;;18.56;50.23
45350;BME280;31086;51.702;-1.106;2022-08-19T09:58:54;100780.88;;;18.99;50.82
45350;BME280;31086;51.702;-1.106;2022-08-19T10:01:23;100787.02;;;19.08;49.75
45350;BME280;31086;51.702;-1.106;2022-08-19T10:03:54;100799.01;;;18.30;50.25
45350;BME280;31086;51.702;-1.106;2022-08-19T10:06:23;100774.43;;;18.79;50.25
45350;BME280;31086;51.702;-1.106;2022-08-19T10:08:52;100793.94;;;18.55;49.74
45350;BME280;31086;51.702;-1.106;2022-08-19T10:11:20;100785.24;;;18.97;48.62
45350;BME280;31086;51.702;-1.106;2022-08-19T10:13:48;100785.91;;;18.85;48.51
45350;BME280;31086;51.702;-1.106;2022-08-19T10:16:18;100788.70;;;18.91;47.69
45350;BME280;31086;51.702;-1.106;2022-08-19T10:18:45;100788.34;;;18.47;47.97
45350;BME280;31086;51.702;-1.106;2022-08-19T10:21:15;100789.19;;;19.25;46.78
45350;BME280;31086;51.702;-1.106;2022-08-19T10:23:45;100794.77;;;19.13;46.98
45350;BME280;31086;51.702;-1.106;2022-08-19T10:26:16;100798.71;;;19.01;46.07
45350;BME280;31086;51.702;-1.106;2022-08-19T10:28:44;100799.22;;;18.52;45.62
45350;BME280;31086;51.702;-1.106;2022-08-19T10:31:13;100799.51;;;18.43;46.66
45350;BME280;31086;51.702;-1.106;2022-08-19T10:33:41;100798.97;;;18.99;46.77
45350;BME280;31086;51.702;-1.106;2022-08-19T10:36:12;100790.69;;;18.44;47.07
45350;BME280;31086;51.702;-1.106;2022-08-19T10:38:40;100792.67;;;19.52;46.66
45350;BME280;31086;51.702;-1.106;2022-08-19T10:41:09;100801.12;;;18.60;45.97
45350;BME280;31086;51.702;-1.106;2022-08-19T10:43:37;100797.57;;;19.73;44.67
45350;BME280;31086;51.702;-1.106;2022-08-19T10:46:06;100803.05;;;19.71;43.70
45350;BME280;31086;51.702;-1.106;2022-08-19T10:48:33;100804.80;;;19.37;44.26
45350;BME280;31086;51.702;-1.106;2022-08-19T10:51:01;100793.54;;;19.58;44.12
45350;BME280;31086;51.702;-1.106;2022-08-19T10:53:29;100796.88;;;19.69;43.47
45350;BME280;31086;51.702;-1.106;2022-08-19T10:55:56;100803.36;;;19.33;44.00
45350;BME280;31086;51.702;-1.106;2022-08-19T10:58:23;100797.53;;;20.27;43.71
45350;BME280;31086;51.702;-1.106;2022-08-19T11:00:52;100796.34;;;19.09;45.02
45350;BME280;31086;51.702;-1.106;2022-08-19T11:03:20;100802.54;;;19.41;44.76
45350;BME280;31086;51.702;-1.106;2022-08-19T11:05:57;100805.64;;;19.63;44.08
45350;BME280;31086;51.702;-1.106;2022-08-19T11:08:25;100804.72;;;19.86;44.18
45350;BME280;31086;51.702;-1.106;2022-08-19T11:10:53;100801.59;;;20.54;44.22
45350;BME280;31086;51.702;-1.106;2022-08-19T11:13:21;100797.70;;;20.46;43.49
45350;BME280;31086;51.702;-1.106;2022-08-19T11:15:56;100798.87;;;20.79;43.35
45350;BME280;31086;51.702;-1.106;2022-08-19T11:18:24;100803.62;;;20.92;42.68
45350;BME280;31086;51.702;-1.106;2022-08-19T11:20:51;100799.96;;;20.66;42.66
45350;BME280;31086;51.702;-1.106;2022-08-19T11:23:18;100790.37;;;20.75;42.93
45350;BME280;31086;51.702;-1.106;2022-08-19T11:25:46;100788.73;;;20.63;43.14
45350;BME280;31086;51.702;-1.106;2022-08-19T11:28:14;100786.00;;;20.63;43.03
45350;BME280;31086;51.702;-1.106;2022-08-19T11:30:41;100783.84;;;21.31;42.55
45350;BME280;31086;51.702;-1.106;2022-08-19T11:33:08;100788.02;;;21.17;42.04
45350;BME280;31086;51.702;-1.106;2022-08-19T11:35:39;100784.86;;;21.36;42.24
45350;BME280;31086;51.702;-1.106;2022-08-19T11:38:07;100781.10;;;21.50;41.89
45350;BME280;31086;51.702;-1.106;2022-08-19T11:40:34;100778.36;;;21.44;42.40
45350;BME280;31086;51.702;-1.106;2022-08-19T11:43:02;100774.02;;;22.48;41.58
45350;BME280;31086;51.702;-1.106;2022-08-19T11:45:30;100780.69;;;21.31;40.78
45350;BME280;31086;51.702;-1.106;2022-08-19T11:47:57;100777.26;;;21.03;41.61
45350;BME280;31086;51.702;-1.106;2022-08-19T11:50:25;100787.30;;;20.96;42.61
45350;BME280;31086;51.702;-1.106;2022-08-19T11:52:54;100779.21;;;21.39;41.60
45350;BME280;31086;51.702;-1.106;2022-08-19T11:55:21;100781.69;;;21.74;41.87
45350;BME280;31086;51.702;-1.106;2022-08-19T11:57:49;100784.85;;;21.53;41.76
45350;BME280;31086;51.702;-1.106;2022-08-19T12:00:16;100780.19;;;21.61;41.47
45350;BME280;31086;51.702;-1.106;2022-08-19T12:02:43;100773.06;;;21.50;41.53
45350;BME280;31086;51.702;-1.106;2022-08-19T12:05:10;100780.75;;;21.44;42.64
45350;BME280;31086;51.702;-1.106;2022-08-19T12:07:38;100773.79;;;21.85;41.58
45350;BME280;31086;51.702;-1.106;2022-08-19T12:10:05;100776.08;;;21.36;42.17
45350;BME280;31086;51.702;-1.106;2022-08-19T12:12:33;100775.18;;;21.94;42.10
45350;BME280;31086;51.702;-1.106;2022-08-19T12:15:00;100775.26;;;21.31;42.02
45350;BME280;31086;51.702;-1.106;2022-08-19T12:17:27;100772.98;;;22.08;41.50
45350;BME280;31086;51.702;-1.106;2022-08-19T12:19:54;100774.94;;;21.29;42.35
45350;BME280;31086;51.702;-1.106;2022-08-19T12:22:22;100783.37;;;21.95;42.19
45350;BME280;31086;51.702;-1.106;2022-08-19T12:24:49;100773.14;;;22.92;40.81
45350;BME280;31086;51.702;-1.106;2022-08-19T12:27:16;100773.75;;;22.42;40.78
45350;BME280;31086;51.702;-1.106;2022-08-19T12:29:43;100761.65;;;23.40;39.90
45350;BME280;31086;51.702;-1.106;2022-08-19T12:32:10;100769.60;;;22.05;41.75
45350;BME280;31086;51.702;-1.106;2022-08-19T12:34:37;100767.32;;;23.23;40.53
45350;BME280;31086;51.702;-1.106;2022-08-19T12:37:06;100771.38;;;23.03;40.70
45350;BME280;31086;51.702;-1.106;2022-08-19T12:39:36;100766.07;;;23.76;40.59
45350;BME280;31086;51.702;-1.106;2022-08-19T12:42:05;100764.08;;;23.71;40.74
45350;BME280;31086;51.702;-1.106;2022-08-19T12:44:32;100778.49;;;23.39;40.03
45350;BME280;31086;51.702;-1.106;2022-08-19T12:46:59;100773.70;;;22.98;40.77